sensor_id;sensor_type;location;lat;lon;timestamp;pressure;altitude;pressure_sealevel;temperature;humidity
38400;BME280;24180;42.676;23.320;2023-05-18T00:02:04;94134.47;;;11.90;100.00
38400;BME280;24180;42.676;23.320;2023-05-18T00:04:31;94173.00;;;12.09;100.00
38400;BME280;24180;42.676;23.320;2023-05-18T00:06:58;94169.47;;;11.94;100.00
38400;BME280;24180;42.676;23.320;2023-05-18T00:09:34;94120.41;;;11.52;100.00
38400;BME280;24180;42.676;23.320;2023-05-18T00:12:00;94167.38;;;11.90;100.00
38400;BME280;24180;42.676;23.320;2023-05-18T00:14:27;94119.78;;;11.42;100.00
38400;BME280;24180;42.676;23.320;2023-05-18T00:16:53;94170.81;;;11.74;100.00
38400;BME280;24180;42.676;23.320;2023-05-18T00:19:19;94170.16;;;11.72;100.00
38400;BME280;24180;42.676;23.320;2023-05-18T00:21:46;94177.63;;;11.75;100.00
38400;BME280;24180;42.676;23.320;2023-05-18T00:24:12;94143.75;;;11.52;100.00
38400;BME280;24180;42.676;23.320;2023-05-18T00:26:39;94149.91;;;11.59;100.00
38400;BME280;24180;42.676;23.320;2023-05-18T00:29:05;94147.28;;;11.67;100.00
38400;BME280;24180;42.676;23.320;2023-05-18T00:31:31;94153.28;;;11.68;100.00
38400;BME280;24180;42.676;23.320;2023-05-18T00:34:04;94123.81;;;11.53;100.00
38400;BME280;24180;42.676;23.320;2023-05-18T00:36:30;94178.41;;;11.76;100.00
38400;BME280;24180;42.676;23.320;2023-05-18T00:38:59;94174.84;;;11.85;100.00
38400;BME280;24180;42.676;23.320;2023-05-18T00:41:26;94152.81;;;11.64;100.00
38400;BME280;24180;42.676;23.320;2023-05-18T00:43:55;94174.69;;;11.86;100.00
38400;BME280;24180;42.676;23.320;2023-05-18T00:46:22;94147.13;;;11.61;100.00
38400;BME280;24180;42.676;23.320;2023-05-18T00:48:49;94084.00;;;11.30;100.00
38400;BME280;24180;42.676;23.320;2023-05-18T00:51:16;94172.09;;;11.94;100.00
38400;BME280;24180;42.676;23.320;2023-05-18T00:53:42;94146.50;;;11.75;100.00
38400;BME280;24180;42.676;23.320;2023-05-18T00:56:09;94165.59;;;11.90;100.00
38400;BME280;24180;42.676;23.320;2023-05-18T00:58:35;94161.56;;;11.80;100.00
38400;BME280;24180;42.676;23.320;2023-05-18T01:01:02;94157.66;;;11.76;100.00
38400;BME280;24180;42.676;23.320;2023-05-18T01:03:31;94132.53;;;11.68;100.00
38400;BME280;24180;42.676;23.320;2023-05-18T01:05:57;94163.53;;;11.78;100.00
38400;BME280;24180;42.676;23.320;2023-05-18T01:08:26;94142.09;;;11.67;100.00
38400;BME280;24180;42.676;23.320;2023-05-18T01:11:13;94123.00;;;11.52;100.00
38400;BME280;24180;42.676;23.320;2023-05-18T01:17:19;94168.38;;;11.81;100.00
38400;BME280;24180;42.676;23.320;2023-05-18T01:27:34;94176.63;;;11.76;100.00
38400;BME280;24180;42.676;23.320;2023-05-18T01:30:03;94176.97;;;11.73;100.00
38400;BME280;24180;42.676;23.320;2023-05-18T01:32:29;94169.84;;;11.59;100.00
38400;BME280;24180;42.676;23.320;2023-05-18T01:34:54;94176.31;;;11.71;100.00
38400;BME280;24180;42.676;23.320;2023-05-18T01:37:20;94164.94;;;11.64;100.00
38400;BME280;24180;42.676;23.320;2023-05-18T01:39:45;94176.81;;;11.75;100.00
38400;BME280;24180;42.676;23.320;2023-05-18T01:42:16;94145.84;;;11.49;100.00
38400;BME280;24180;42.676;23.320;2023-05-18T01:44:47;94118.50;;;11.30;100.00
38400;BME280;24180;42.676;23.320;2023-05-18T01:47:15;94165.28;;;11.69;100.00
38400;BME280;24180;42.676;23.320;2023-05-18T01:52:10;94166.59;;;11.81;100.00
38400;BME280;24180;42.676;23.320;2023-05-18T01:54:40;94158.81;;;11.81;100.00
38400;BME280;24180;42.676;23.320;2023-05-18T01:57:08;94145.69;;;11.66;100.00
38400;BME280;24180;42.676;23.320;2023-05-18T01:59:34;94151.34;;;11.70;100.00
38400;BME280;24180;42.676;23.320;2023-05-18T02:02:02;94148.91;;;11.68;100.00
38400;BME280;24180;42.676;23.320;2023-05-18T02:04:28;94146.31;;;11.77;100.00
38400;BME280;24180;42.676;23.320;2023-05-18T02:06:54;94164.78;;;11.90;100.00
38400;BME280;24180;42.676;23.320;2023-05-18T02:09:20;94159.16;;;11.78;100.00
38400;BME280;24180;42.676;23.320;2023-05-18T02:11:46;94154.59;;;11.72;100.00
38400;BME280;24180;42.676;23.320;2023-05-18T02:14:12;94146.81;;;11.64;100.00
38400;BME280;24180;42.676;23.320;2023-05-18T02:16:37;94162.22;;;11.65;100.00
38400;BME280;24180;42.676;23.320;2023-05-18T02:19:03;94171.16;;;11.79;100.00
38400;BME280;24180;42.676;23.320;2023-05-18T02:21:28;94189.28;;;11.87;100.00
38400;BME280;24180;42.676;23.320;2023-05-18T02:23:54;94179.88;;;11.94;100.00
38400;BME280;24180;42.676;23.320;2023-05-18T02:26:19;94182.28;;;11.96;100.00
38400;BME280;24180;42.676;23.320;2023-05-18T02:28:45;94185.03;;;12.02;100.00
38400;BME280;24180;42.676;23.320;2023-05-18T02:31:11;94151.34;;;11.86;100.00
38400;BME280;24180;42.676;23.320;2023-05-18T02:33:37;94180.31;;;12.06;100.00
38400;BME280;24180;42.676;23.320;2023-05-18T02:38:35;94158.16;;;11.87;100.00
38400;BME280;24180;42.676;23.320;2023-05-18T02:41:00;94157.34;;;11.87;100.00
38400;BME280;24180;42.676;23.320;2023-05-18T02:43:26;94179.06;;;11.94;100.00
38400;BME280;24180;42.676;23.320;2023-05-18T02:45:51;94184.38;;;12.00;100.00
38400;BME280;24180;42.676;23.320;2023-05-18T02:48:17;94180.00;;;11.93;100.00
38400;BME280;24180;42.676;23.320;2023-05-18T02:50:42;94167.56;;;11.80;100.00
38400;BME280;24180;42.676;23.320;2023-05-18T02:53:10;94197.34;;;12.00;100.00
38400;BME280;24180;42.676;23.320;2023-05-18T02:55:35;94191.19;;;12.01;100.00
38400;BME280;24180;42.676;23.320;2023-05-18T02:58:01;94200.75;;;12.09;100.00
38400;BME280;24180;42.676;23.320;2023-05-18T03:00:27;94179.88;;;11.86;100.00
38400;BME280;24180;42.676;23.320;2023-05-18T03:02:54;94213.91;;;12.07;100.00
38400;BME280;24180;42.676;23.320;2023-05-18T03:05:22;94221.00;;;12.13;100.00
38400;BME280;24180;42.676;23.320;2023-05-18T03:07:49;94225.84;;;12.16;100.00
38400;BME280;24180;42.676;23.320;2023-05-18T03:10:17;94229.31;;;12.01;100.00
38400;BME280;24180;42.676;23.320;2023-05-18T03:12:43;94229.63;;;12.06;100.00
38400;BME280;24180;42.676;23.320;2023-05-18T03:15:09;94238.84;;;12.08;100.00
38400;BME280;24180;42.676;23.320;2023-05-18T03:17:36;94243.56;;;12.05;100.00
38400;BME280;24180;42.676;23.320;2023-05-18T03:20:01;94221.03;;;11.97;100.00
38400;BME280;24180;42.676;23.320;2023-05-18T03:22:27;94236.13;;;11.94;100.00
38400;BME280;24180;42.676;23.320;2023-05-18T03:24:52;94242.47;;;11.91;100.00
38400;BME280;24180;42.676;23.320;2023-05-18T03:27:19;94244.06;;;11.92;100.00
38400;BME280;24180;42.676;23.320;2023-05-18T03:29:50;94221.72;;;11.75;100.00
38400;BME280;24180;42.676;23.320;2023-05-18T03:32:17;94221.38;;;11.86;100.00
38400;BME280;24180;42.676;23.320;2023-05-18T03:34:43;94244.72;;;12.02;100.00
38400;BME280;24180;42.676;23.320;2023-05-18T03:37:09;94250.53;;;12.04;100.00
38400;BME280;24180;42.676;23.320;2023-05-18T03:39:34;94254.75;;;12.05;100.00
38400;BME280;24180;42.676;23.320;2023-05-18T03:42:00;94235.31;;;11.93;100.00
38400;BME280;24180;42.676;23.320;2023-05-18T03:44:26;94233.84;;;11.99;100.00
38400;BME280;24180;42.676;23.320;2023-05-18T03:46:51;94249.22;;;12.08;100.00
38400;BME280;24180;42.676;23.320;2023-05-18T03:49:17;94242.75;;;11.96;100.00
38400;BME280;24180;42.676;23.320;2023-05-18T03:51:42;94253.94;;;12.05;100.00
38400;BME280;24180;42.676;23.320;2023-05-18T03:54:07;94257.19;;;12.07;100.00
38400;BME280;24180;42.676;23.320;2023-05-18T03:56:33;94254.28;;;12.02;100.00
38400;BME280;24180;42.676;23.320;2023-05-18T03:58:58;94238.88;;;11.92;100.00
38400;BME280;24180;42.676;23.320;2023-05-18T04:01:24;94269.34;;;12.23;100.00
38400;BME280;24180;42.676;23.320;2023-05-18T04:03:49;94260.59;;;12.24;100.00
38400;BME280;24180;42.676;23.320;2023-05-18T04:06:15;94282.78;;;12.26;100.00
38400;BME280;24180;42.676;23.320;2023-05-18T04:08:41;94274.69;;;12.21;100.00
38400;BME280;24180;42.676;23.320;2023-05-18T04:11:07;94283.75;;;12.33;100.00
38400;BME280;24180;42.676;23.320;2023-05-18T04:13:36;94260.06;;;12.28;100.00
38400;BME280;24180;42.676;23.320;2023-05-18T04:16:02;94268.00;;;12.43;100.00
38400;BME280;24180;42.676;23.320;2023-05-18T04:18:28;94263.78;;;12.34;100.00
38400;BME280;24180;42.676;23.320;2023-05-18T04:20:54;94254.56;;;12.31;100.00
38400;BME280;24180;42.676;23.320;2023-05-18T04:23:20;94287.47;;;12.39;100.00
38400;BME280;24180;42.676;23.320;2023-05-18T04:25:46;94258.59;;;12.34;100.00
38400;BME280;24180;42.676;23.320;2023-05-18T04:28:13;94264.47;;;12.28;100.00
38400;BME280;24180;42.676;23.320;2023-05-18T04:30:38;94249.22;;;12.16;100.00
38400;BME280;24180;42.676;23.320;2023-05-18T04:33:04;94295.41;;;12.45;100.00
38400;BME280;24180;42.676;23.320;2023-05-18T04:35:32;94295.56;;;12.44;100.00
38400;BME280;24180;42.676;23.320;2023-05-18T04:37:58;94272.56;;;12.33;100.00
38400;BME280;24180;42.676;23.320;2023-05-18T04:40:23;94305.16;;;12.51;100.00
38400;BME280;24180;42.676;23.320;2023-05-18T04:42:49;94283.72;;;12.49;100.00
38400;BME280;24180;42.676;23.320;2023-05-18T04:45:19;94278.53;;;12.49;100.00
38400;BME280;24180;42.676;23.320;2023-05-18T04:47:46;94272.50;;;12.49;100.00
38400;BME280;24180;42.676;23.320;2023-05-18T04:50:30;94305.56;;;12.79;100.00
38400;BME280;24180;42.676;23.320;2023-05-18T04:52:56;94305.88;;;12.76;100.00
38400;BME280;24180;42.676;23.320;2023-05-18T04:55:22;94321.16;;;12.71;100.00
38400;BME280;24180;42.676;23.320;2023-05-18T04:57:52;94304.59;;;12.64;100.00
38400;BME280;24180;42.676;23.320;2023-05-18T05:00:21;94327.28;;;12.86;100.00
38400;BME280;24180;42.676;23.320;2023-05-18T05:02:49;94311.09;;;12.68;100.00
38400;BME280;24180;42.676;23.320;2023-05-18T05:05:14;94313.34;;;12.79;100.00
38400;BME280;24180;42.676;23.320;2023-05-18T05:07:39;94339.31;;;12.87;100.00
38400;BME280;24180;42.676;23.320;2023-05-18T05:10:05;94342.19;;;12.92;100.00
38400;BME280;24180;42.676;23.320;2023-05-18T05:12:31;94342.66;;;12.96;100.00
38400;BME280;24180;42.676;23.320;2023-05-18T05:14:57;94348.34;;;12.99;100.00
38400;BME280;24180;42.676;23.320;2023-05-18T05:17:23;94320.97;;;12.73;100.00
38400;BME280;24180;42.676;23.320;2023-05-18T05:19:48;94352.28;;;12.95;100.00
38400;BME280;24180;42.676;23.320;2023-05-18T05:22:14;94358.53;;;13.09;100.00
38400;BME280;24180;42.676;23.320;2023-05-18T05:24:40;94344.31;;;12.89;100.00
38400;BME280;24180;42.676;23.320;2023-05-18T05:27:05;94344.50;;;12.87;100.00
38400;BME280;24180;42.676;23.320;2023-05-18T05:29:30;94351.16;;;12.82;100.00
38400;BME280;24180;42.676;23.320;2023-05-18T05:31:56;94364.63;;;12.85;100.00
38400;BME280;24180;42.676;23.320;2023-05-18T05:34:21;94356.34;;;12.82;100.00
38400;BME280;24180;42.676;23.320;2023-05-18T05:36:47;94331.25;;;12.66;100.00
38400;BME280;24180;42.676;23.320;2023-05-18T05:39:12;94338.69;;;12.69;100.00
38400;BME280;24180;42.676;23.320;2023-05-18T05:44:22;94370.69;;;12.61;100.00
38400;BME280;24180;42.676;23.320;2023-05-18T05:46:47;94337.75;;;12.54;100.00
38400;BME280;24180;42.676;23.320;2023-05-18T05:49:13;94331.88;;;12.60;100.00
38400;BME280;24180;42.676;23.320;2023-05-18T05:51:38;94358.19;;;12.65;100.00
38400;BME280;24180;42.676;23.320;2023-05-18T05:54:04;94370.50;;;12.79;100.00
38400;BME280;24180;42.676;23.320;2023-05-18T05:56:29;94322.16;;;12.54;100.00
38400;BME280;24180;42.676;23.320;2023-05-18T05:58:54;94368.19;;;12.84;100.00
38400;BME280;24180;42.676;23.320;2023-05-18T06:01:20;94384.44;;;12.86;100.00
38400;BME280;24180;42.676;23.320;2023-05-18T06:03:45;94379.59;;;12.83;100.00
38400;BME280;24180;42.676;23.320;2023-05-18T06:06:13;94375.03;;;12.85;100.00
38400;BME280;24180;42.676;23.320;2023-05-18T06:08:38;94344.34;;;12.73;100.00
38400;BME280;24180;42.676;23.320;2023-05-18T06:11:04;94372.09;;;12.88;100.00
38400;BME280;24180;42.676;23.320;2023-05-18T06:13:29;94365.31;;;12.71;100.00
38400;BME280;24180;42.676;23.320;2023-05-18T06:15:56;94379.91;;;12.80;100.00
38400;BME280;24180;42.676;23.320;2023-05-18T06:18:21;94385.91;;;12.81;100.00
38400;BME280;24180;42.676;23.320;2023-05-18T06:20:47;94357.09;;;12.43;100.00
38400;BME280;24180;42.676;23.320;2023-05-18T06:23:12;94378.50;;;12.53;100.00
38400;BME280;24180;42.676;23.320;2023-05-18T06:25:37;94384.16;;;12.57;100.00
38400;BME280;24180;42.676;23.320;2023-05-18T06:28:03;94390.31;;;12.64;100.00
38400;BME280;24180;42.676;23.320;2023-05-18T06:30:29;94383.34;;;12.56;100.00
38400;BME280;24180;42.676;23.320;2023-05-18T06:32:54;94381.56;;;12.49;100.00
38400;BME280;24180;42.676;23.320;2023-05-18T06:35:19;94374.59;;;12.49;100.00
38400;BME280;24180;42.676;23.320;2023-05-18T06:37:45;94384.66;;;12.52;100.00
38400;BME280;24180;42.676;23.320;2023-05-18T06:40:10;94355.81;;;12.39;100.00
38400;BME280;24180;42.676;23.320;2023-05-18T06:42:36;94397.44;;;12.78;100.00
38400;BME280;24180;42.676;23.320;2023-05-18T06:45:02;94395.81;;;12.77;100.00
38400;BME280;24180;42.676;23.320;2023-05-18T06:47:28;94359.44;;;12.85;100.00
38400;BME280;24180;42.676;23.320;2023-05-18T06:49:53;94341.75;;;12.73;100.00
38400;BME280;24180;42.676;23.320;2023-05-18T06:52:18;94393.50;;;13.06;100.00
38400;BME280;24180;42.676;23.320;2023-05-18T06:54:44;94406.97;;;13.18;100.00
38400;BME280;24180;42.676;23.320;2023-05-18T06:57:10;94405.53;;;13.16;100.00
38400;BME280;24180;42.676;23.320;2023-05-18T06:59:35;94383.59;;;13.10;100.00
38400;BME280;24180;42.676;23.320;2023-05-18T07:02:01;94424.16;;;13.27;100.00
38400;BME280;24180;42.676;23.320;2023-05-18T07:04:26;94426.28;;;13.32;100.00
38400;BME280;24180;42.676;23.320;2023-05-18T07:06:52;94350.88;;;12.60;100.00
38400;BME280;24180;42.676;23.320;2023-05-18T07:09:20;94403.22;;;13.04;100.00
38400;BME280;24180;42.676;23.320;2023-05-18T07:11:46;94413.47;;;13.14;100.00
38400;BME280;24180;42.676;23.320;2023-05-18T07:14:11;94413.78;;;13.19;100.00
38400;BME280;24180;42.676;23.320;2023-05-18T07:16:37;94404.38;;;13.18;100.00
38400;BME280;24180;42.676;23.320;2023-05-18T07:19:03;94417.69;;;13.23;100.00
38400;BME280;24180;42.676;23.320;2023-05-18T07:21:29;94447.69;;;13.34;100.00
38400;BME280;24180;42.676;23.320;2023-05-18T07:23:55;94436.03;;;13.05;100.00
38400;BME280;24180;42.676;23.320;2023-05-18T07:26:20;94463.50;;;13.16;100.00
38400;BME280;24180;42.676;23.320;2023-05-18T07:28:46;94468.19;;;13.29;100.00
38400;BME280;24180;42.676;23.320;2023-05-18T07:31:12;94445.81;;;13.20;100.00
38400;BME280;24180;42.676;23.320;2023-05-18T07:33:40;94482.16;;;13.44;100.00
38400;BME280;24180;42.676;23.320;2023-05-18T07:36:06;94483.44;;;13.48;100.00
38400;BME280;24180;42.676;23.320;2023-05-18T07:38:32;94462.47;;;13.41;100.00
38400;BME280;24180;42.676;23.320;2023-05-18T07:40:58;94457.94;;;13.35;100.00
38400;BME280;24180;42.676;23.320;2023-05-18T07:43:24;94476.38;;;13.56;100.00
38400;BME280;24180;42.676;23.320;2023-05-18T07:45:50;94491.53;;;13.53;100.00
38400;BME280;24180;42.676;23.320;2023-05-18T07:48:15;94507.13;;;13.53;100.00
38400;BME280;24180;42.676;23.320;2023-05-18T07:50:41;94509.75;;;13.45;100.00
38400;BME280;24180;42.676;23.320;2023-05-18T07:53:06;94501.84;;;13.30;100.00
38400;BME280;24180;42.676;23.320;2023-05-18T07:55:31;94519.53;;;13.43;100.00
38400;BME280;24180;42.676;23.320;2023-05-18T07:57:57;94502.81;;;13.29;100.00
38400;BME280;24180;42.676;23.320;2023-05-18T08:00:25;94529.91;;;13.51;100.00
38400;BME280;24180;42.676;23.320;2023-05-18T08:02:50;94508.16;;;13.44;100.00
38400;BME280;24180;42.676;23.320;2023-05-18T08:05:16;94534.91;;;13.60;100.00
38400;BME280;24180;42.676;23.320;2023-05-18T08:07:42;94505.72;;;13.42;100.00
38400;BME280;24180;42.676;23.320;2023-05-18T08:10:08;94513.84;;;13.47;100.00
38400;BME280;24180;42.676;23.320;2023-05-18T08:12:34;94537.69;;;13.59;100.00
38400;BME280;24180;42.676;23.320;2023-05-18T08:14:59;94552.00;;;13.55;100.00
38400;BME280;24180;42.676;23.320;2023-05-18T08:17:25;94535.44;;;13.48;100.00
38400;BME280;24180;42.676;23.320;2023-05-18T08:19:50;94548.47;;;13.48;100.00
38400;BME280;24180;42.676;23.320;2023-05-18T08:22:17;94529.94;;;13.35;100.00
38400;BME280;24180;42.676;23.320;2023-05-18T08:24:43;94552.03;;;13.47;100.00
38400;BME280;24180;42.676;23.320;2023-05-18T08:27:09;94555.44;;;13.47;100.00
38400;BME280;24180;42.676;23.320;2023-05-18T08:29:36;94546.34;;;13.43;100.00
38400;BME280;24180;42.676;23.320;2023-05-18T08:32:01;94561.78;;;13.45;100.00
38400;BME280;24180;42.676;23.320;2023-05-18T08:34:27;94543.09;;;13.33;100.00
38400;BME280;24180;42.676;23.320;2023-05-18T08:36:54;94557.59;;;13.28;100.00
38400;BME280;24180;42.676;23.320;2023-05-18T08:39:19;94560.84;;;13.22;100.00
38400;BME280;24180;42.676;23.320;2023-05-18T08:41:56;94575.81;;;13.20;100.00
38400;BME280;24180;42.676;23.320;2023-05-18T08:44:33;94541.31;;;13.01;100.00
38400;BME280;24180;42.676;23.320;2023-05-18T08:47:02;94569.13;;;13.17;100.00
38400;BME280;24180;42.676;23.320;2023-05-18T08:49:30;94567.00;;;13.12;100.00
38400;BME280;24180;42.676;23.320;2023-05-18T08:51:59;94564.59;;;13.27;100.00
38400;BME280;24180;42.676;23.320;2023-05-18T08:54:29;94572.38;;;13.27;100.00
38400;BME280;24180;42.676;23.320;2023-05-18T08:56:56;94567.81;;;13.29;100.00
38400;BME280;24180;42.676;23.320;2023-05-18T08:59:24;94584.56;;;13.43;100.00
38400;BME280;24180;42.676;23.320;2023-05-18T09:01:51;94584.38;;;13.36;100.00
38400;BME280;24180;42.676;23.320;2023-05-18T09:04:19;94557.59;;;13.36;100.00
38400;BME280;24180;42.676;23.320;2023-05-18T09:06:46;94601.44;;;13.47;100.00
38400;BME280;24180;42.676;23.320;2023-05-18T09:09:12;94585.19;;;13.37;100.00
38400;BME280;24180;42.676;23.320;2023-05-18T09:11:38;94577.88;;;13.32;100.00
38400;BME280;24180;42.676;23.320;2023-05-18T09:14:04;94602.28;;;13.47;100.00
38400;BME280;24180;42.676;23.320;2023-05-18T09:16:30;94619.66;;;13.47;100.00
38400;BME280;24180;42.676;23.320;2023-05-18T09:18:55;94620.63;;;13.46;100.00
38400;BME280;24180;42.676;23.320;2023-05-18T09:21:21;94604.69;;;13.33;100.00
38400;BME280;24180;42.676;23.320;2023-05-18T09:23:47;94619.47;;;13.40;100.00
38400;BME280;24180;42.676;23.320;2023-05-18T09:26:12;94611.88;;;13.39;100.00
38400;BME280;24180;42.676;23.320;2023-05-18T09:28:39;94608.59;;;13.53;100.00
38400;BME280;24180;42.676;23.320;2023-05-18T09:31:07;94598.50;;;13.50;100.00
38400;BME280;24180;42.676;23.320;2023-05-18T09:33:38;94628.56;;;13.69;100.00
38400;BME280;24180;42.676;23.320;2023-05-18T09:36:05;94578.88;;;13.31;100.00
38400;BME280;24180;42.676;23.320;2023-05-18T09:38:38;94603.72;;;13.42;100.00
38400;BME280;24180;42.676;23.320;2023-05-18T09:41:11;94612.19;;;13.44;100.00
38400;BME280;24180;42.676;23.320;2023-05-18T09:43:38;94631.19;;;13.52;100.00
38400;BME280;24180;42.676;23.320;2023-05-18T09:46:08;94607.63;;;13.46;100.00
38400;BME280;24180;42.676;23.320;2023-05-18T09:48:34;94639.63;;;13.63;100.00
38400;BME280;24180;42.676;23.320;2023-05-18T09:51:01;94603.25;;;13.38;100.00
38400;BME280;24180;42.676;23.320;2023-05-18T09:53:26;94653.13;;;13.50;100.00
38400;BME280;24180;42.676;23.320;2023-05-18T09:55:51;94616.72;;;13.18;100.00
38400;BME280;24180;42.676;23.320;2023-05-18T09:58:17;94573.00;;;12.97;100.00
38400;BME280;24180;42.676;23.320;2023-05-18T10:00:46;94641.09;;;13.49;100.00
38400;BME280;24180;42.676;23.320;2023-05-18T10:03:17;94611.38;;;13.27;100.00
38400;BME280;24180;42.676;23.320;2023-05-18T10:05:43;94624.88;;;13.47;100.00
38400;BME280;24180;42.676;23.320;2023-05-18T10:08:11;94632.16;;;13.59;100.00
38400;BME280;24180;42.676;23.320;2023-05-18T10:10:38;94640.81;;;13.52;100.00
38400;BME280;24180;42.676;23.320;2023-05-18T10:13:04;94643.06;;;13.55;100.00
38400;BME280;24180;42.676;23.320;2023-05-18T10:15:30;94661.59;;;13.52;100.00
38400;BME280;24180;42.676;23.320;2023-05-18T10:17:58;94663.06;;;13.63;100.00
38400;BME280;24180;42.676;23.320;2023-05-18T10:20:24;94631.69;;;13.40;100.00
38400;BME280;24180;42.676;23.320;2023-05-18T10:22:53;94662.72;;;13.66;100.00
38400;BME280;24180;42.676;23.320;2023-05-18T10:25:21;94670.16;;;13.85;100.00
38400;BME280;24180;42.676;23.320;2023-05-18T10:27:49;94661.53;;;13.92;100.00
38400;BME280;24180;42.676;23.320;2023-05-18T10:30:15;94641.72;;;13.83;100.00
38400;BME280;24180;42.676;23.320;2023-05-18T10:32:44;94660.56;;;13.93;100.00
38400;BME280;24180;42.676;23.320;2023-05-18T10:35:10;94670.97;;;14.01;100.00
38400;BME280;24180;42.676;23.320;2023-05-18T10:37:39;94679.09;;;13.98;100.00
38400;BME280;24180;42.676;23.320;2023-05-18T10:40:07;94685.94;;;14.07;100.00
38400;BME280;24180;42.676;23.320;2023-05-18T10:42:33;94679.09;;;14.06;100.00
38400;BME280;24180;42.676;23.320;2023-05-18T10:44:59;94690.56;;;14.28;100.00
38400;BME280;24180;42.676;23.320;2023-05-18T10:47:29;94691.69;;;14.50;100.00
38400;BME280;24180;42.676;23.320;2023-05-18T10:49:57;94665.78;;;14.48;100.00
38400;BME280;24180;42.676;23.320;2023-05-18T10:52:23;94672.78;;;14.56;100.00
38400;BME280;24180;42.676;23.320;2023-05-18T10:54:59;94671.03;;;14.32;100.00
38400;BME280;24180;42.676;23.320;2023-05-18T10:57:30;94688.78;;;14.29;100.00
38400;BME280;24180;42.676;23.320;2023-05-18T10:59:58;94681.78;;;14.29;100.00
38400;BME280;24180;42.676;23.320;2023-05-18T11:02:24;94707.34;;;14.42;100.00
38400;BME280;24180;42.676;23.320;2023-05-18T11:04:51;94705.38;;;14.52;100.00
38400;BME280;24180;42.676;23.320;2023-05-18T11:07:20;94655.41;;;14.32;100.00
38400;BME280;24180;42.676;23.320;2023-05-18T11:09:48;94688.75;;;14.45;100.00
38400;BME280;24180;42.676;23.320;2023-05-18T11:12:15;94684.25;;;14.23;100.00
38400;BME280;24180;42.676;23.320;2023-05-18T11:17:23;94723.78;;;14.34;100.00
38400;BME280;24180;42.676;23.320;2023-05-18T11:22:49;94721.50;;;14.31;100.00
38400;BME280;24180;42.676;23.320;2023-05-18T11:27:55;94727.66;;;14.55;100.00
38400;BME280;24180;42.676;23.320;2023-05-18T11:30:44;94728.03;;;14.43;100.00
38400;BME280;24180;42.676;23.320;2023-05-18T11:33:20;94721.97;;;14.51;100.00
38400;BME280;24180;42.676;23.320;2023-05-18T11:38:50;94711.31;;;14.69;100.00
38400;BME280;24180;42.676;23.320;2023-05-18T11:41:36;94699.59;;;14.65;100.00
38400;BME280;24180;42.676;23.320;2023-05-18T11:46:59;94722.09;;;14.96;100.00
38400;BME280;24180;42.676;23.320;2023-05-18T11:49:30;94718.41;;;15.14;100.00
38400;BME280;24180;42.676;23.320;2023-05-18T11:52:01;94716.28;;;15.17;100.00
38400;BME280;24180;42.676;23.320;2023-05-18T11:54:32;94721.53;;;15.09;100.00
38400;BME280;24180;42.676;23.320;2023-05-18T11:56:57;94730.63;;;14.82;100.00
38400;BME280;24180;42.676;23.320;2023-05-18T11:59:30;94720.94;;;14.68;100.00
38400;BME280;24180;42.676;23.320;2023-05-18T12:01:58;94715.47;;;14.47;100.00
38400;BME280;24180;42.676;23.320;2023-05-18T12:04:25;94706.72;;;14.40;100.00
38400;BME280;24180;42.676;23.320;2023-05-18T12:06:51;94714.22;;;14.35;100.00
38400;BME280;24180;42.676;23.320;2023-05-18T12:09:17;94716.34;;;14.15;100.00
38400;BME280;24180;42.676;23.320;2023-05-18T12:11:44;94733.06;;;14.37;100.00
38400;BME280;24180;42.676;23.320;2023-05-18T12:14:10;94699.22;;;14.21;100.00
38400;BME280;24180;42.676;23.320;2023-05-18T12:16:38;94711.16;;;14.07;100.00
38400;BME280;24180;42.676;23.320;2023-05-18T12:19:03;94735.41;;;14.07;100.00
38400;BME280;24180;42.676;23.320;2023-05-18T12:21:29;94707.59;;;13.84;100.00
38400;BME280;24180;42.676;23.320;2023-05-18T12:23:59;94728.06;;;14.11;100.00
38400;BME280;24180;42.676;23.320;2023-05-18T12:26:25;94714.69;;;14.22;100.00
38400;BME280;24180;42.676;23.320;2023-05-18T12:28:53;94736.81;;;14.26;100.00
38400;BME280;24180;42.676;23.320;2023-05-18T12:31:19;94748.53;;;14.38;100.00
38400;BME280;24180;42.676;23.320;2023-05-18T12:33:45;94737.66;;;14.35;100.00
38400;BME280;24180;42.676;23.320;2023-05-18T12:36:12;94721.69;;;14.38;100.00
38400;BME280;24180;42.676;23.320;2023-05-18T12:38:37;94730.59;;;14.51;100.00
38400;BME280;24180;42.676;23.320;2023-05-18T12:41:02;94716.91;;;14.49;100.00
38400;BME280;24180;42.676;23.320;2023-05-18T12:43:32;94691.38;;;14.45;100.00
38400;BME280;24180;42.676;23.320;2023-05-18T12:46:03;94739.16;;;14.76;100.00
38400;BME280;24180;42.676;23.320;2023-05-18T12:48:35;94744.56;;;14.67;100.00
38400;BME280;24180;42.676;23.320;2023-05-18T12:51:01;94723.00;;;14.18;100.00
38400;BME280;24180;42.676;23.320;2023-05-18T12:53:40;94756.50;;;14.37;100.00
38400;BME280;24180;42.676;23.320;2023-05-18T12:56:05;94751.78;;;14.24;100.00
38400;BME280;24180;42.676;23.320;2023-05-18T12:58:33;94739.28;;;14.20;100.00
38400;BME280;24180;42.676;23.320;2023-05-18T13:01:06;94739.28;;;14.36;100.00
38400;BME280;24180;42.676;23.320;2023-05-18T13:03:33;94752.91;;;14.46;100.00
38400;BME280;24180;42.676;23.320;2023-05-18T13:06:04;94747.03;;;14.60;100.00
38400;BME280;24180;42.676;23.320;2023-05-18T13:08:31;94746.88;;;14.53;100.00
38400;BME280;24180;42.676;23.320;2023-05-18T13:11:07;94754.19;;;14.58;100.00
38400;BME280;24180;42.676;23.320;2023-05-18T13:13:33;94754.09;;;14.35;100.00